Список аэропортов
Фактическая погода:

23 февраля, 17:50
Температура: +5°C (+2.5*)
Ветер: юго-восточный 3 м/с
Давление: *782 мм
Без существ. явл.
Время (МСК)Темп. СВетерВлажностьДавлениеОблачностьОсадки
15:000ЮВ, 3 м/с47%1044 гПаоблачно
16:00+1ЮВ, 4 м/с45%1044 гПаоблачно
17:00+2ЮВ, 3 м/с44%1044 гПаоблачно
18:00+2ЮВ, 2 м/с43%1043 гПас прояснениями
19:00+1ЮВ, 2 м/с47%1043 гПас прояснениями
20:000ЮВ, 2 м/с51%1043 гПас прояснениями
21:000ЮВ, 2 м/с53%1042 гПас прояснениями
22:00-0ЮВ, 3 м/с56%1042 гПамалооблачно
23:00-0ЮВ, 3 м/с58%1042 гПас прояснениями
24 февраля
00:00-1Ю, 2 м/с61%1042 гПаоблачно
01:00-1Ю, 2 м/с63%1042 гПаоблачно
02:00-2Ю, 1 м/с68%1042 гПамалооблачно
03:00-2Ю, 1 м/с68%1042 гПамалооблачно
04:00-2Ю, 1 м/с68%1041 гПамалооблачно
05:00-2ЮВ, 2 м/с68%1041 гПаясно
06:00-2ЮВ, 2 м/с68%1040 гПамалооблачно
07:00-2Ю, 1 м/с68%1040 гПаясно
08:00-3ЮЗ, 1 м/с72%1040 гПаясно
09:00-2Ю, 1 м/с73%1041 гПамалооблачно
10:00-2Ю, 2 м/с72%1041 гПаоблачно
11:00-1ЮЗ, 2 м/с68%1040 гПас прояснениями
12:00+1З, 2 м/с61%1041 гПамалооблачно
13:00+4ЮЗ, 1 м/с50%1041 гПаясно
14:00+6З, 2 м/с43%1041 гПаясно
15:00+7СЗ, 3 м/с40%1041 гПаясно
16:00+8З, 3 м/с38%1040 гПаясно
17:00+8З, 3 м/с38%1040 гПаясно
18:00+8З, 3 м/с38%1039 гПас прояснениями
19:00+7З, 2 м/с45%1039 гПаясно
20:00+5ЮЗ, 2 м/с54%1040 гПаясно
21:00+4ЮЗ, 2 м/с60%1039 гПаясно
22:00+3ЮЗ, 1 м/с68%1039 гПаоблачно
23:00+2З, 1 м/с73%1040 гПаоблачно
25 февраля
00:00+2ЮЗ, 2 м/с73%1040 гПаоблачно
01:00+2ЮЗ, 2 м/с74%1040 гПаоблачно
02:00+2ЮЗ, 2 м/с75%1039 гПаоблачно
03:00+1З, 1 м/с79%1039 гПаясно
04:000ЮЗ, 1 м/с83%1039 гПаясно
05:000ЮЗ, 2 м/с84%1039 гПаясно
06:000ЮЗ, 3 м/с83%1038 гПас прояснениями
07:000ЮЗ, 3 м/с80%1038 гПаясно
08:00-0З, 1 м/с86%1039 гПаоблачно
09:00-1З, 1 м/с88%1039 гПас прояснениями
10:00-1ЮЗ, 2 м/с88%1039 гПас прояснениями
11:000ЮЗ, 2 м/с85%1039 гПас прояснениями
12:00+3З, 3 м/с69%1040 гПаоблачно
13:00+6З, 3 м/с55%1039 гПаоблачно
14:00+9З, 3 м/с47%1038 гПаоблачно
15:00+10З, 4 м/с43%1038 гПаоблачно